sensor_id;sensor_type;location;lat;lon;timestamp;P1;durP1;ratioP1;P2;durP2;ratioP2
26594;SDS011;14238;49.496;8.154;2023-03-05T00:02:10;15.80;;;9.53;;
26594;SDS011;14238;49.496;8.154;2023-03-05T00:04:37;10.10;;;8.50;;
26594;SDS011;14238;49.496;8.154;2023-03-05T00:07:03;13.10;;;9.70;;
26594;SDS011;14238;49.496;8.154;2023-03-05T00:09:29;11.13;;;8.10;;
26594;SDS011;14238;49.496;8.154;2023-03-05T00:11:55;9.73;;;8.67;;
26594;SDS011;14238;49.496;8.154;2023-03-05T00:14:21;12.07;;;10.00;;
26594;SDS011;14238;49.496;8.154;2023-03-05T00:16:46;12.33;;;8.80;;
26594;SDS011;14238;49.496;8.154;2023-03-05T00:19:13;12.90;;;9.27;;
26594;SDS011;14238;49.496;8.154;2023-03-05T00:21:39;13.37;;;9.20;;
26594;SDS011;14238;49.496;8.154;2023-03-05T00:24:08;11.53;;;9.77;;
26594;SDS011;14238;49.496;8.154;2023-03-05T00:26:36;11.37;;;9.00;;
26594;SDS011;14238;49.496;8.154;2023-03-05T00:29:03;13.10;;;9.93;;
26594;SDS011;14238;49.496;8.154;2023-03-05T00:31:30;13.13;;;10.23;;
26594;SDS011;14238;49.496;8.154;2023-03-05T00:33:58;10.03;;;8.13;;
26594;SDS011;14238;49.496;8.154;2023-03-05T00:36:29;13.07;;;9.43;;
26594;SDS011;14238;49.496;8.154;2023-03-05T00:38:55;10.70;;;8.70;;
26594;SDS011;14238;49.496;8.154;2023-03-05T00:41:21;11.40;;;9.40;;
26594;SDS011;14238;49.496;8.154;2023-03-05T00:43:47;11.67;;;9.20;;
26594;SDS011;14238;49.496;8.154;2023-03-05T00:46:13;12.23;;;9.37;;
26594;SDS011;14238;49.496;8.154;2023-03-05T00:48:38;12.60;;;9.27;;
26594;SDS011;14238;49.496;8.154;2023-03-05T00:51:04;13.10;;;10.20;;
26594;SDS011;14238;49.496;8.154;2023-03-05T00:53:30;11.67;;;9.80;;
26594;SDS011;14238;49.496;8.154;2023-03-05T00:55:55;13.97;;;9.80;;
26594;SDS011;14238;49.496;8.154;2023-03-05T00:58:21;14.00;;;11.00;;
26594;SDS011;14238;49.496;8.154;2023-03-05T01:00:47;12.23;;;9.73;;
26594;SDS011;14238;49.496;8.154;2023-03-05T01:03:14;11.73;;;10.53;;
26594;SDS011;14238;49.496;8.154;2023-03-05T01:05:41;14.00;;;10.77;;
26594;SDS011;14238;49.496;8.154;2023-03-05T01:08:07;10.80;;;9.33;;
26594;SDS011;14238;49.496;8.154;2023-03-05T01:10:33;13.30;;;11.10;;
26594;SDS011;14238;49.496;8.154;2023-03-05T01:12:59;13.80;;;10.13;;
26594;SDS011;14238;49.496;8.154;2023-03-05T01:15:24;13.60;;;10.20;;
26594;SDS011;14238;49.496;8.154;2023-03-05T01:17:50;11.30;;;9.80;;
26594;SDS011;14238;49.496;8.154;2023-03-05T01:20:17;14.63;;;11.00;;
26594;SDS011;14238;49.496;8.154;2023-03-05T01:22:43;13.43;;;9.63;;
26594;SDS011;14238;49.496;8.154;2023-03-05T01:25:10;13.97;;;9.43;;
26594;SDS011;14238;49.496;8.154;2023-03-05T01:27:36;14.17;;;10.10;;
26594;SDS011;14238;49.496;8.154;2023-03-05T01:30:03;12.47;;;10.77;;
26594;SDS011;14238;49.496;8.154;2023-03-05T01:32:29;12.37;;;10.00;;
26594;SDS011;14238;49.496;8.154;2023-03-05T01:34:54;12.40;;;11.00;;
26594;SDS011;14238;49.496;8.154;2023-03-05T01:37:20;13.33;;;10.37;;
26594;SDS011;14238;49.496;8.154;2023-03-05T01:39:45;12.57;;;10.30;;
26594;SDS011;14238;49.496;8.154;2023-03-05T01:42:11;12.10;;;10.73;;
26594;SDS011;14238;49.496;8.154;2023-03-05T01:44:36;14.10;;;10.23;;
26594;SDS011;14238;49.496;8.154;2023-03-05T01:47:02;13.37;;;11.50;;
26594;SDS011;14238;49.496;8.154;2023-03-05T01:49:37;12.97;;;10.30;;
26594;SDS011;14238;49.496;8.154;2023-03-05T01:52:11;13.93;;;11.37;;
26594;SDS011;14238;49.496;8.154;2023-03-05T01:54:52;13.07;;;11.70;;
26594;SDS011;14238;49.496;8.154;2023-03-05T01:57:27;13.33;;;10.47;;
26594;SDS011;14238;49.496;8.154;2023-03-05T01:59:59;21.67;;;12.20;;
26594;SDS011;14238;49.496;8.154;2023-03-05T02:02:31;13.63;;;11.93;;
26594;SDS011;14238;49.496;8.154;2023-03-05T02:05:01;14.60;;;11.87;;
26594;SDS011;14238;49.496;8.154;2023-03-05T02:07:40;13.30;;;11.57;;
26594;SDS011;14238;49.496;8.154;2023-03-05T02:10:16;15.63;;;12.93;;
26594;SDS011;14238;49.496;8.154;2023-03-05T02:12:44;22.30;;;14.13;;
26594;SDS011;14238;49.496;8.154;2023-03-05T02:15:12;20.90;;;12.97;;
26594;SDS011;14238;49.496;8.154;2023-03-05T02:17:38;16.07;;;12.40;;
26594;SDS011;14238;49.496;8.154;2023-03-05T02:20:12;16.67;;;13.17;;
26594;SDS011;14238;49.496;8.154;2023-03-05T02:22:40;18.13;;;13.77;;
26594;SDS011;14238;49.496;8.154;2023-03-05T02:25:13;16.63;;;12.20;;
26594;SDS011;14238;49.496;8.154;2023-03-05T02:27:40;17.27;;;13.27;;
26594;SDS011;14238;49.496;8.154;2023-03-05T02:30:08;19.00;;;13.60;;
26594;SDS011;14238;49.496;8.154;2023-03-05T02:32:34;16.03;;;11.17;;
26594;SDS011;14238;49.496;8.154;2023-03-05T02:35:00;16.13;;;12.93;;
26594;SDS011;14238;49.496;8.154;2023-03-05T02:37:25;13.93;;;12.43;;
26594;SDS011;14238;49.496;8.154;2023-03-05T02:39:51;17.00;;;13.10;;
26594;SDS011;14238;49.496;8.154;2023-03-05T02:42:16;18.17;;;13.33;;
26594;SDS011;14238;49.496;8.154;2023-03-05T02:44:42;18.57;;;13.03;;
26594;SDS011;14238;49.496;8.154;2023-03-05T02:47:07;15.57;;;12.53;;
26594;SDS011;14238;49.496;8.154;2023-03-05T02:49:33;16.27;;;14.50;;
26594;SDS011;14238;49.496;8.154;2023-03-05T02:51:59;15.00;;;12.83;;
26594;SDS011;14238;49.496;8.154;2023-03-05T02:54:24;15.53;;;12.50;;
26594;SDS011;14238;49.496;8.154;2023-03-05T02:56:50;17.70;;;12.77;;
26594;SDS011;14238;49.496;8.154;2023-03-05T02:59:15;17.80;;;12.60;;
26594;SDS011;14238;49.496;8.154;2023-03-05T03:01:41;14.50;;;12.10;;
26594;SDS011;14238;49.496;8.154;2023-03-05T03:04:06;14.63;;;12.90;;
26594;SDS011;14238;49.496;8.154;2023-03-05T03:06:32;13.70;;;12.07;;
26594;SDS011;14238;49.496;8.154;2023-03-05T03:08:57;14.07;;;12.53;;
26594;SDS011;14238;49.496;8.154;2023-03-05T03:11:23;14.77;;;13.10;;
26594;SDS011;14238;49.496;8.154;2023-03-05T03:13:48;15.70;;;12.30;;
26594;SDS011;14238;49.496;8.154;2023-03-05T03:16:14;17.30;;;12.90;;
26594;SDS011;14238;49.496;8.154;2023-03-05T03:18:40;17.47;;;13.73;;
26594;SDS011;14238;49.496;8.154;2023-03-05T03:21:06;15.03;;;13.00;;
26594;SDS011;14238;49.496;8.154;2023-03-05T03:23:33;15.80;;;13.87;;
26594;SDS011;14238;49.496;8.154;2023-03-05T03:25:58;16.83;;;13.40;;
26594;SDS011;14238;49.496;8.154;2023-03-05T03:28:24;17.07;;;13.30;;
26594;SDS011;14238;49.496;8.154;2023-03-05T03:30:50;20.87;;;14.20;;
26594;SDS011;14238;49.496;8.154;2023-03-05T03:33:16;17.73;;;14.03;;
26594;SDS011;14238;49.496;8.154;2023-03-05T03:35:42;16.00;;;13.27;;
26594;SDS011;14238;49.496;8.154;2023-03-05T03:38:09;17.60;;;13.50;;
26594;SDS011;14238;49.496;8.154;2023-03-05T03:40:36;19.37;;;14.37;;
26594;SDS011;14238;49.496;8.154;2023-03-05T03:43:02;17.83;;;13.43;;
26594;SDS011;14238;49.496;8.154;2023-03-05T03:45:28;17.30;;;14.53;;
26594;SDS011;14238;49.496;8.154;2023-03-05T03:47:53;17.50;;;13.53;;
26594;SDS011;14238;49.496;8.154;2023-03-05T03:50:19;16.67;;;13.27;;
26594;SDS011;14238;49.496;8.154;2023-03-05T03:52:45;17.77;;;14.30;;
26594;SDS011;14238;49.496;8.154;2023-03-05T03:55:11;17.43;;;14.90;;
26594;SDS011;14238;49.496;8.154;2023-03-05T03:57:37;19.73;;;14.80;;
26594;SDS011;14238;49.496;8.154;2023-03-05T04:00:04;17.93;;;14.60;;
26594;SDS011;14238;49.496;8.154;2023-03-05T04:02:31;20.00;;;15.07;;
26594;SDS011;14238;49.496;8.154;2023-03-05T04:04:57;18.47;;;14.73;;
26594;SDS011;14238;49.496;8.154;2023-03-05T04:07:22;17.63;;;13.90;;
26594;SDS011;14238;49.496;8.154;2023-03-05T04:09:48;15.43;;;13.63;;
26594;SDS011;14238;49.496;8.154;2023-03-05T04:12:13;18.53;;;13.93;;
26594;SDS011;14238;49.496;8.154;2023-03-05T04:14:42;18.93;;;14.73;;
26594;SDS011;14238;49.496;8.154;2023-03-05T04:17:09;19.17;;;14.80;;
26594;SDS011;14238;49.496;8.154;2023-03-05T04:19:35;18.40;;;14.50;;
26594;SDS011;14238;49.496;8.154;2023-03-05T04:22:00;16.10;;;14.40;;
26594;SDS011;14238;49.496;8.154;2023-03-05T04:24:26;21.03;;;14.70;;
26594;SDS011;14238;49.496;8.154;2023-03-05T04:26:51;17.53;;;13.23;;
26594;SDS011;14238;49.496;8.154;2023-03-05T04:29:18;17.47;;;13.70;;
26594;SDS011;14238;49.496;8.154;2023-03-05T04:31:43;17.40;;;14.20;;
26594;SDS011;14238;49.496;8.154;2023-03-05T04:34:09;18.80;;;15.20;;
26594;SDS011;14238;49.496;8.154;2023-03-05T04:36:34;22.47;;;13.70;;
26594;SDS011;14238;49.496;8.154;2023-03-05T04:39:00;17.70;;;15.10;;
26594;SDS011;14238;49.496;8.154;2023-03-05T04:41:27;16.77;;;13.47;;
26594;SDS011;14238;49.496;8.154;2023-03-05T04:43:52;19.27;;;14.97;;
26594;SDS011;14238;49.496;8.154;2023-03-05T04:46:18;20.90;;;14.97;;
26594;SDS011;14238;49.496;8.154;2023-03-05T04:48:44;19.87;;;13.37;;
26594;SDS011;14238;49.496;8.154;2023-03-05T04:51:10;18.77;;;13.87;;
26594;SDS011;14238;49.496;8.154;2023-03-05T04:53:35;18.60;;;15.10;;
26594;SDS011;14238;49.496;8.154;2023-03-05T04:56:01;17.53;;;14.00;;
26594;SDS011;14238;49.496;8.154;2023-03-05T04:58:26;21.37;;;15.40;;
26594;SDS011;14238;49.496;8.154;2023-03-05T05:00:52;15.70;;;14.10;;
26594;SDS011;14238;49.496;8.154;2023-03-05T05:03:17;18.00;;;14.00;;
26594;SDS011;14238;49.496;8.154;2023-03-05T05:05:43;17.93;;;13.97;;
26594;SDS011;14238;49.496;8.154;2023-03-05T05:08:09;21.13;;;14.33;;
26594;SDS011;14238;49.496;8.154;2023-03-05T05:10:35;19.27;;;14.00;;
26594;SDS011;14238;49.496;8.154;2023-03-05T05:13:03;18.83;;;13.70;;
26594;SDS011;14238;49.496;8.154;2023-03-05T05:15:29;16.17;;;13.10;;
26594;SDS011;14238;49.496;8.154;2023-03-05T05:17:56;17.20;;;12.80;;
26594;SDS011;14238;49.496;8.154;2023-03-05T05:20:22;16.03;;;13.57;;
26594;SDS011;14238;49.496;8.154;2023-03-05T05:22:47;17.73;;;12.63;;
26594;SDS011;14238;49.496;8.154;2023-03-05T05:25:13;13.77;;;12.23;;
26594;SDS011;14238;49.496;8.154;2023-03-05T05:27:39;17.70;;;12.27;;
26594;SDS011;14238;49.496;8.154;2023-03-05T05:30:04;17.00;;;12.90;;
26594;SDS011;14238;49.496;8.154;2023-03-05T05:32:31;18.60;;;12.50;;
26594;SDS011;14238;49.496;8.154;2023-03-05T05:34:57;14.63;;;11.93;;
26594;SDS011;14238;49.496;8.154;2023-03-05T05:37:23;16.90;;;11.53;;
26594;SDS011;14238;49.496;8.154;2023-03-05T05:39:50;14.37;;;11.20;;
26594;SDS011;14238;49.496;8.154;2023-03-05T05:42:17;17.57;;;12.00;;
26594;SDS011;14238;49.496;8.154;2023-03-05T05:44:44;15.97;;;11.80;;
26594;SDS011;14238;49.496;8.154;2023-03-05T05:47:11;16.47;;;11.13;;
26594;SDS011;14238;49.496;8.154;2023-03-05T05:49:37;15.40;;;11.13;;
26594;SDS011;14238;49.496;8.154;2023-03-05T05:52:03;16.77;;;12.80;;
26594;SDS011;14238;49.496;8.154;2023-03-05T05:54:29;15.63;;;11.40;;
26594;SDS011;14238;49.496;8.154;2023-03-05T05:56:55;17.57;;;11.90;;
26594;SDS011;14238;49.496;8.154;2023-03-05T05:59:20;15.93;;;11.70;;
26594;SDS011;14238;49.496;8.154;2023-03-05T06:01:46;13.13;;;10.20;;
26594;SDS011;14238;49.496;8.154;2023-03-05T06:04:11;21.10;;;12.40;;
26594;SDS011;14238;49.496;8.154;2023-03-05T06:06:37;12.83;;;10.33;;
26594;SDS011;14238;49.496;8.154;2023-03-05T06:09:02;13.57;;;11.30;;
26594;SDS011;14238;49.496;8.154;2023-03-05T06:11:28;15.90;;;11.67;;
26594;SDS011;14238;49.496;8.154;2023-03-05T06:13:54;12.40;;;11.00;;
26594;SDS011;14238;49.496;8.154;2023-03-05T06:16:21;13.23;;;11.30;;
26594;SDS011;14238;49.496;8.154;2023-03-05T06:18:48;13.57;;;10.17;;
26594;SDS011;14238;49.496;8.154;2023-03-05T06:21:17;17.33;;;10.77;;
26594;SDS011;14238;49.496;8.154;2023-03-05T06:23:45;16.40;;;10.07;;
26594;SDS011;14238;49.496;8.154;2023-03-05T06:26:12;14.80;;;10.23;;
26594;SDS011;14238;49.496;8.154;2023-03-05T06:28:40;16.00;;;11.40;;
26594;SDS011;14238;49.496;8.154;2023-03-05T06:31:07;11.50;;;9.60;;
26594;SDS011;14238;49.496;8.154;2023-03-05T06:33:37;16.00;;;11.07;;
26594;SDS011;14238;49.496;8.154;2023-03-05T06:36:08;15.30;;;10.83;;
26594;SDS011;14238;49.496;8.154;2023-03-05T06:38:35;15.60;;;10.17;;
26594;SDS011;14238;49.496;8.154;2023-03-05T06:41:02;13.57;;;11.30;;
26594;SDS011;14238;49.496;8.154;2023-03-05T06:43:33;13.23;;;10.47;;
26594;SDS011;14238;49.496;8.154;2023-03-05T06:46:13;15.17;;;10.10;;
26594;SDS011;14238;49.496;8.154;2023-03-05T06:48:41;11.90;;;10.03;;
26594;SDS011;14238;49.496;8.154;2023-03-05T06:53:47;15.37;;;11.00;;
26594;SDS011;14238;49.496;8.154;2023-03-05T06:56:13;14.20;;;9.70;;
26594;SDS011;14238;49.496;8.154;2023-03-05T06:58:40;12.90;;;9.20;;
26594;SDS011;14238;49.496;8.154;2023-03-05T07:01:07;12.93;;;9.00;;
26594;SDS011;14238;49.496;8.154;2023-03-05T07:03:34;16.07;;;10.60;;
26594;SDS011;14238;49.496;8.154;2023-03-05T07:06:04;14.20;;;10.40;;
26594;SDS011;14238;49.496;8.154;2023-03-05T07:08:31;12.43;;;10.03;;
26594;SDS011;14238;49.496;8.154;2023-03-05T07:10:58;12.10;;;10.37;;
26594;SDS011;14238;49.496;8.154;2023-03-05T07:13:24;14.07;;;10.80;;
26594;SDS011;14238;49.496;8.154;2023-03-05T07:15:50;11.80;;;8.90;;
26594;SDS011;14238;49.496;8.154;2023-03-05T07:18:15;12.03;;;9.23;;
26594;SDS011;14238;49.496;8.154;2023-03-05T07:20:41;12.03;;;9.90;;
26594;SDS011;14238;49.496;8.154;2023-03-05T07:23:06;12.60;;;10.17;;
26594;SDS011;14238;49.496;8.154;2023-03-05T07:25:34;9.63;;;8.73;;
26594;SDS011;14238;49.496;8.154;2023-03-05T07:28:00;10.43;;;9.30;;
26594;SDS011;14238;49.496;8.154;2023-03-05T07:30:26;9.70;;;8.70;;
26594;SDS011;14238;49.496;8.154;2023-03-05T07:32:51;10.97;;;8.97;;
26594;SDS011;14238;49.496;8.154;2023-03-05T07:35:17;10.93;;;9.70;;
26594;SDS011;14238;49.496;8.154;2023-03-05T07:37:42;15.37;;;10.37;;
26594;SDS011;14238;49.496;8.154;2023-03-05T07:40:08;13.30;;;9.87;;
26594;SDS011;14238;49.496;8.154;2023-03-05T07:42:34;12.37;;;9.27;;
26594;SDS011;14238;49.496;8.154;2023-03-05T07:45:00;12.20;;;9.40;;
26594;SDS011;14238;49.496;8.154;2023-03-05T07:47:25;13.07;;;9.27;;
26594;SDS011;14238;49.496;8.154;2023-03-05T07:49:51;11.30;;;8.87;;
26594;SDS011;14238;49.496;8.154;2023-03-05T07:52:16;12.50;;;8.60;;
26594;SDS011;14238;49.496;8.154;2023-03-05T07:54:42;13.63;;;8.27;;
26594;SDS011;14238;49.496;8.154;2023-03-05T07:57:09;11.50;;;9.13;;
26594;SDS011;14238;49.496;8.154;2023-03-05T07:59:36;11.77;;;9.40;;
26594;SDS011;14238;49.496;8.154;2023-03-05T08:02:02;10.90;;;8.53;;
26594;SDS011;14238;49.496;8.154;2023-03-05T08:04:28;13.20;;;8.80;;
26594;SDS011;14238;49.496;8.154;2023-03-05T08:06:55;8.80;;;7.90;;
26594;SDS011;14238;49.496;8.154;2023-03-05T08:09:22;11.27;;;8.60;;
26594;SDS011;14238;49.496;8.154;2023-03-05T08:11:47;11.43;;;8.30;;
26594;SDS011;14238;49.496;8.154;2023-03-05T08:14:13;9.23;;;8.27;;
26594;SDS011;14238;49.496;8.154;2023-03-05T08:16:38;11.17;;;8.87;;
26594;SDS011;14238;49.496;8.154;2023-03-05T08:19:04;12.20;;;8.10;;
26594;SDS011;14238;49.496;8.154;2023-03-05T08:21:31;9.60;;;8.20;;
26594;SDS011;14238;49.496;8.154;2023-03-05T08:23:59;12.13;;;8.00;;
26594;SDS011;14238;49.496;8.154;2023-03-05T08:26:28;9.63;;;8.30;;
26594;SDS011;14238;49.496;8.154;2023-03-05T08:28:54;9.27;;;7.37;;
26594;SDS011;14238;49.496;8.154;2023-03-05T08:31:22;12.53;;;8.80;;
26594;SDS011;14238;49.496;8.154;2023-03-05T08:33:49;10.03;;;7.37;;
26594;SDS011;14238;49.496;8.154;2023-03-05T08:36:16;9.23;;;7.07;;
26594;SDS011;14238;49.496;8.154;2023-03-05T08:38:42;7.13;;;6.43;;
26594;SDS011;14238;49.496;8.154;2023-03-05T08:41:08;8.17;;;7.27;;
26594;SDS011;14238;49.496;8.154;2023-03-05T08:43:34;8.50;;;7.20;;
26594;SDS011;14238;49.496;8.154;2023-03-05T08:46:01;11.27;;;7.60;;
26594;SDS011;14238;49.496;8.154;2023-03-05T08:48:27;11.00;;;6.90;;
26594;SDS011;14238;49.496;8.154;2023-03-05T08:50:53;12.23;;;6.70;;
26594;SDS011;14238;49.496;8.154;2023-03-05T08:53:20;12.50;;;7.23;;
26594;SDS011;14238;49.496;8.154;2023-03-05T08:55:56;6.50;;;5.90;;
26594;SDS011;14238;49.496;8.154;2023-03-05T08:58:22;9.80;;;6.30;;
26594;SDS011;14238;49.496;8.154;2023-03-05T09:00:48;9.43;;;6.70;;
26594;SDS011;14238;49.496;8.154;2023-03-05T09:03:13;9.03;;;6.43;;
26594;SDS011;14238;49.496;8.154;2023-03-05T09:05:39;8.10;;;6.40;;
26594;SDS011;14238;49.496;8.154;2023-03-05T09:08:05;7.33;;;6.03;;
26594;SDS011;14238;49.496;8.154;2023-03-05T09:10:30;12.30;;;6.63;;
26594;SDS011;14238;49.496;8.154;2023-03-05T09:12:56;8.33;;;6.07;;
26594;SDS011;14238;49.496;8.154;2023-03-05T09:15:21;8.20;;;5.60;;
26594;SDS011;14238;49.496;8.154;2023-03-05T09:17:47;6.73;;;5.27;;
26594;SDS011;14238;49.496;8.154;2023-03-05T09:20:12;6.93;;;5.67;;
26594;SDS011;14238;49.496;8.154;2023-03-05T09:22:41;8.33;;;6.33;;
26594;SDS011;14238;49.496;8.154;2023-03-05T09:25:07;7.03;;;6.30;;
26594;SDS011;14238;49.496;8.154;2023-03-05T09:27:37;7.20;;;5.03;;
26594;SDS011;14238;49.496;8.154;2023-03-05T09:30:03;8.80;;;5.60;;
26594;SDS011;14238;49.496;8.154;2023-03-05T09:32:30;8.10;;;5.10;;
26594;SDS011;14238;49.496;8.154;2023-03-05T09:34:56;7.93;;;5.87;;
26594;SDS011;14238;49.496;8.154;2023-03-05T09:37:22;7.50;;;5.50;;
26594;SDS011;14238;49.496;8.154;2023-03-05T09:39:48;6.10;;;5.23;;
26594;SDS011;14238;49.496;8.154;2023-03-05T09:42:20;6.30;;;4.80;;
26594;SDS011;14238;49.496;8.154;2023-03-05T09:50:39;8.10;;;5.10;;
26594;SDS011;14238;49.496;8.154;2023-03-05T09:53:20;7.97;;;4.87;;
26594;SDS011;14238;49.496;8.154;2023-03-05T09:56:03;7.27;;;5.30;;
26594;SDS011;14238;49.496;8.154;2023-03-05T09:58:53;8.20;;;5.83;;
26594;SDS011;14238;49.496;8.154;2023-03-05T10:01:37;7.67;;;5.37;;
26594;SDS011;14238;49.496;8.154;2023-03-05T10:04:10;6.10;;;4.90;;
26594;SDS011;14238;49.496;8.154;2023-03-05T10:09:43;6.53;;;5.73;;
26594;SDS011;14238;49.496;8.154;2023-03-05T10:23:12;4.87;;;4.37;;
26594;SDS011;14238;49.496;8.154;2023-03-05T10:28:39;5.03;;;4.53;;
26594;SDS011;14238;49.496;8.154;2023-03-05T10:37:47;7.00;;;4.70;;
26594;SDS011;14238;49.496;8.154;2023-03-05T10:40:40;6.43;;;4.30;;
26594;SDS011;14238;49.496;8.154;2023-03-05T10:43:26;6.00;;;4.17;;
26594;SDS011;14238;49.496;8.154;2023-03-05T10:46:11;4.17;;;3.40;;
26594;SDS011;14238;49.496;8.154;2023-03-05T10:48:44;5.27;;;4.07;;
26594;SDS011;14238;49.496;8.154;2023-03-05T10:51:32;5.13;;;4.00;;
26594;SDS011;14238;49.496;8.154;2023-03-05T10:59:50;4.00;;;3.50;;
26594;SDS011;14238;49.496;8.154;2023-03-05T11:02:25;4.67;;;3.30;;
26594;SDS011;14238;49.496;8.154;2023-03-05T11:04:51;4.47;;;3.60;;
26594;SDS011;14238;49.496;8.154;2023-03-05T11:12:40;4.23;;;3.83;;
26594;SDS011;14238;49.496;8.154;2023-03-05T11:17:36;4.27;;;2.63;;
26594;SDS011;14238;49.496;8.154;2023-03-05T11:25:35;3.37;;;3.03;;
26594;SDS011;14238;49.496;8.154;2023-03-05T11:28:21;4.13;;;2.90;;
26594;SDS011;14238;49.496;8.154;2023-03-05T11:31:22;3.10;;;2.80;;
26594;SDS011;14238;49.496;8.154;2023-03-05T11:33:40;2.83;;;2.53;;
26594;SDS011;14238;49.496;8.154;2023-03-05T11:36:23;4.80;;;3.57;;
26594;SDS011;14238;49.496;8.154;2023-03-05T11:38:58;3.00;;;2.73;;
26594;SDS011;14238;49.496;8.154;2023-03-05T11:44:08;3.57;;;2.87;;
26594;SDS011;14238;49.496;8.154;2023-03-05T11:46:46;4.90;;;3.03;;
26594;SDS011;14238;49.496;8.154;2023-03-05T11:49:23;2.97;;;2.77;;
26594;SDS011;14238;49.496;8.154;2023-03-05T11:54:52;3.57;;;3.27;;
26594;SDS011;14238;49.496;8.154;2023-03-05T11:57:32;2.70;;;2.50;;
26594;SDS011;14238;49.496;8.154;2023-03-05T12:00:06;2.90;;;2.70;;
26594;SDS011;14238;49.496;8.154;2023-03-05T12:02:36;3.60;;;3.30;;
26594;SDS011;14238;49.496;8.154;2023-03-05T12:05:02;2.80;;;2.47;;
26594;SDS011;14238;49.496;8.154;2023-03-05T12:07:34;2.63;;;2.43;;
26594;SDS011;14238;49.496;8.154;2023-03-05T12:10:04;3.13;;;2.83;;
26594;SDS011;14238;49.496;8.154;2023-03-05T12:15:38;2.70;;;2.50;;
26594;SDS011;14238;49.496;8.154;2023-03-05T12:23:48;3.97;;;3.33;;
26594;SDS011;14238;49.496;8.154;2023-03-05T12:26:17;3.93;;;2.80;;
26594;SDS011;14238;49.496;8.154;2023-03-05T12:33:50;3.70;;;3.23;;
26594;SDS011;14238;49.496;8.154;2023-03-05T12:38:42;3.93;;;3.53;;
26594;SDS011;14238;49.496;8.154;2023-03-05T12:41:53;3.17;;;2.83;;
26594;SDS011;14238;49.496;8.154;2023-03-05T12:44:16;3.70;;;3.40;;
26594;SDS011;14238;49.496;8.154;2023-03-05T12:49:43;3.40;;;3.10;;
26594;SDS011;14238;49.496;8.154;2023-03-05T12:52:21;5.10;;;3.50;;
26594;SDS011;14238;49.496;8.154;2023-03-05T12:57:33;3.93;;;3.63;;
26594;SDS011;14238;49.496;8.154;2023-03-05T13:02:45;5.00;;;3.90;;
26594;SDS011;14238;49.496;8.154;2023-03-05T13:05:20;4.50;;;4.00;;
26594;SDS011;14238;49.496;8.154;2023-03-05T13:07:49;3.80;;;3.47;;
26594;SDS011;14238;49.496;8.154;2023-03-05T13:10:26;4.57;;;3.53;;
26594;SDS011;14238;49.496;8.154;2023-03-05T13:12:54;5.60;;;3.40;;
26594;SDS011;14238;49.496;8.154;2023-03-05T13:15:22;4.53;;;4.13;;
26594;SDS011;14238;49.496;8.154;2023-03-05T13:23:08;4.63;;;4.23;;
26594;SDS011;14238;49.496;8.154;2023-03-05T13:25:57;4.27;;;3.87;;
26594;SDS011;14238;49.496;8.154;2023-03-05T13:28:32;5.27;;;4.13;;
26594;SDS011;14238;49.496;8.154;2023-03-05T13:30:59;4.53;;;3.70;;
26594;SDS011;14238;49.496;8.154;2023-03-05T13:33:29;3.90;;;3.60;;
26594;SDS011;14238;49.496;8.154;2023-03-05T13:35:59;4.40;;;4.00;;
26594;SDS011;14238;49.496;8.154;2023-03-05T13:38:35;5.00;;;3.93;;
26594;SDS011;14238;49.496;8.154;2023-03-05T13:43:29;3.47;;;3.20;;
26594;SDS011;14238;49.496;8.154;2023-03-05T13:45:55;5.63;;;4.30;;
26594;SDS011;14238;49.496;8.154;2023-03-05T13:48:21;6.93;;;3.93;;
26594;SDS011;14238;49.496;8.154;2023-03-05T13:50:52;6.07;;;3.90;;
26594;SDS011;14238;49.496;8.154;2023-03-05T13:53:29;3.90;;;3.60;;
26594;SDS011;14238;49.496;8.154;2023-03-05T13:55:57;4.10;;;3.70;;
26594;SDS011;14238;49.496;8.154;2023-03-05T14:04:07;5.03;;;4.47;;
26594;SDS011;14238;49.496;8.154;2023-03-05T14:14:54;6.20;;;4.20;;
26594;SDS011;14238;49.496;8.154;2023-03-05T14:17:21;4.77;;;4.30;;
26594;SDS011;14238;49.496;8.154;2023-03-05T14:22:36;4.07;;;3.70;;
26594;SDS011;14238;49.496;8.154;2023-03-05T14:25:04;6.30;;;5.70;;
26594;SDS011;14238;49.496;8.154;2023-03-05T14:27:32;4.50;;;4.10;;
26594;SDS011;14238;49.496;8.154;2023-03-05T14:30:00;26.17;;;23.80;;
26594;SDS011;14238;49.496;8.154;2023-03-05T14:32:34;6.20;;;5.70;;
26594;SDS011;14238;49.496;8.154;2023-03-05T14:35:02;4.80;;;4.40;;
26594;SDS011;14238;49.496;8.154;2023-03-05T14:37:34;5.07;;;4.67;;
26594;SDS011;14238;49.496;8.154;2023-03-05T14:40:14;6.40;;;3.80;;
26594;SDS011;14238;49.496;8.154;2023-03-05T14:42:51;4.57;;;4.13;;
26594;SDS011;14238;49.496;8.154;2023-03-05T14:45:29;22.97;;;11.07;;
26594;SDS011;14238;49.496;8.154;2023-03-05T14:48:01;12.93;;;8.70;;
26594;SDS011;14238;49.496;8.154;2023-03-05T14:50:32;7.40;;;6.67;;
26594;SDS011;14238;49.496;8.154;2023-03-05T14:53:36;4.17;;;3.87;;
26594;SDS011;14238;49.496;8.154;2023-03-05T14:55:54;5.63;;;5.10;;
26594;SDS011;14238;49.496;8.154;2023-03-05T14:58:23;4.40;;;3.93;;
26594;SDS011;14238;49.496;8.154;2023-03-05T15:00:52;4.40;;;4.00;;
26594;SDS011;14238;49.496;8.154;2023-03-05T15:03:19;5.43;;;4.03;;
26594;SDS011;14238;49.496;8.154;2023-03-05T15:05:47;6.40;;;4.37;;
26594;SDS011;14238;49.496;8.154;2023-03-05T15:08:25;4.30;;;3.70;;
26594;SDS011;14238;49.496;8.154;2023-03-05T15:10:52;5.70;;;4.80;;
26594;SDS011;14238;49.496;8.154;2023-03-05T15:13:18;4.40;;;4.00;;
26594;SDS011;14238;49.496;8.154;2023-03-05T15:15:44;3.90;;;3.47;;
26594;SDS011;14238;49.496;8.154;2023-03-05T15:18:14;4.70;;;4.30;;
26594;SDS011;14238;49.496;8.154;2023-03-05T15:20:42;3.90;;;3.60;;
26594;SDS011;14238;49.496;8.154;2023-03-05T15:23:08;4.37;;;3.90;;
26594;SDS011;14238;49.496;8.154;2023-03-05T15:25:34;5.83;;;3.83;;
26594;SDS011;14238;49.496;8.154;2023-03-05T15:27:59;4.17;;;3.87;;
26594;SDS011;14238;49.496;8.154;2023-03-05T15:32:51;6.43;;;3.63;;
26594;SDS011;14238;49.496;8.154;2023-03-05T15:35:18;10.30;;;4.47;;
26594;SDS011;14238;49.496;8.154;2023-03-05T15:37:45;3.97;;;3.60;;
26594;SDS011;14238;49.496;8.154;2023-03-05T15:40:11;4.57;;;3.33;;
26594;SDS011;14238;49.496;8.154;2023-03-05T15:42:36;3.83;;;3.50;;
26594;SDS011;14238;49.496;8.154;2023-03-05T15:45:02;3.37;;;3.17;;
26594;SDS011;14238;49.496;8.154;2023-03-05T15:47:28;4.27;;;3.97;;
26594;SDS011;14238;49.496;8.154;2023-03-05T15:49:54;3.63;;;3.33;;
26594;SDS011;14238;49.496;8.154;2023-03-05T15:52:19;3.00;;;2.80;;
26594;SDS011;14238;49.496;8.154;2023-03-05T15:54:45;3.67;;;3.37;;
26594;SDS011;14238;49.496;8.154;2023-03-05T15:57:10;3.30;;;3.10;;
26594;SDS011;14238;49.496;8.154;2023-03-05T15:59:37;5.47;;;3.77;;
26594;SDS011;14238;49.496;8.154;2023-03-05T16:02:03;3.77;;;3.40;;
26594;SDS011;14238;49.496;8.154;2023-03-05T16:04:28;4.07;;;3.67;;
26594;SDS011;14238;49.496;8.154;2023-03-05T16:06:54;4.10;;;3.70;;
26594;SDS011;14238;49.496;8.154;2023-03-05T16:09:23;4.00;;;3.70;;
26594;SDS011;14238;49.496;8.154;2023-03-05T16:11:53;3.70;;;3.30;;
26594;SDS011;14238;49.496;8.154;2023-03-05T16:14:20;4.70;;;4.30;;
26594;SDS011;14238;49.496;8.154;2023-03-05T16:16:48;4.23;;;3.80;;
26594;SDS011;14238;49.496;8.154;2023-03-05T16:19:15;5.33;;;3.90;;
26594;SDS011;14238;49.496;8.154;2023-03-05T16:21:42;4.50;;;4.10;;
26594;SDS011;14238;49.496;8.154;2023-03-05T16:24:08;4.37;;;3.80;;
26594;SDS011;14238;49.496;8.154;2023-03-05T16:26:34;5.57;;;4.90;;
26594;SDS011;14238;49.496;8.154;2023-03-05T16:29:00;6.93;;;4.77;;